DeKalb Peachtree Airport
KPDK : now visible

Airfield :











YOU CAN JOIN US ON...

 
LOGIN :

Register | Disclaimer

   EN    FR    IT 

 









Legend :    VFR   Marginal VFR   IFR   Intensive IFR   Very Intensive IFR
Visi :
Ceiling :
>= 8 km
>= 3000ft
5 to 8 km
1000 to 3000 ft
1500m to 5 km
500 to 1000 ft
800 to 1500m
200 to 500 ft
< 800m
< 200 ft
Symbols :   Thunderstorms  Fog  Heavy snow  Heavy precipitations  Wind > 20 kt







- Airport Elevation : 1003 ft


KPDK - DeKalb Peachtree

CURRENT METAR :
  • 201600Z 25010KT FEW018 BKN023 OVC040 08/05 A2976 RMK AO2 T00830050

EXPIRED METARs :
  • 201535Z 26008KT 10SM BKN013 OVC040 08/05 A2976 RMK AO2 RAE05 P0000 T00780050 $
  • 201455Z 28008KT 10SM -RA BKN009 07/06 A2974 RMK AO2 P0000 T00720056 $
  • 201353Z 25009KT BKN014 BKN019 OVC026 07/05 A2972 RMK AO2 RAB1254E15 SLP067 P0000 T00670050
  • 201350Z 23009KT BKN014 OVC019 07/05 A2972 RMK AO2 RAB1254E15 P0000

TAF KPDK
Valid from the 20 at 12:00 until the 21 at 12:00 UTC


201134Z 2012/2112 24012G21KT P6SM OVC015
TEMPO 2012/2016 4SM -SHRA OVC008
FM201700 26012G20KT 6SM BR OVC018
FM202000 26012G20KT P6SM OVC020
FM202100 27013KT P6SM OVC020
FM210100 28009KT P6SM BKN035
FM210300 27007KT P6SM SCT080
KZTL FIR / North America



MET'MAP, your aeronautical weather chart ! - Copyright ORBIFLY December 2007 - Disclaimer

ORBIFLY MET'MAP TEAM :

Programming & Development : Alexandra Zaïnal
Concept & Development : Baudouin d'Aumeries
Co-Development & Prog : Marc-Olivier Méhu
Technical & hardware support : Manuel Goepfert

Contact : metmap@orbifly.com




SOURCES & CREDITS :

   NOAA       Earth
Advisory